Time;durP1;ratioP1;P1;durP2;ratioP2;P2;SDS_P1;SDS_P2;PMS_P1;PMS_P2;Temp;Humidity;BMP_temperature;BMP_pressure;BME280_temperature;BME280_humidity;BME280_pressure;Samples;Min_cycle;Max_cycle;Signal;HPM_P1;HPM_P2
2022/12/28 00:01:52;;;;;;;;;3.00;3.00;;;;;-146.50;100.00;59256.41;5080200;27;45938;-73
2022/12/28 00:04:18;;;;;;;;;5.00;4.00;;;;;-146.50;100.00;59256.41;5088405;27;45435;-72
2022/12/28 00:06:44;;;;;;;;;2.25;2.25;;;;;-146.50;100.00;59256.41;5082327;27;45432;-74
2022/12/28 00:09:12;;;;;;;;;3.50;2.75;;;;;-146.50;100.00;59256.41;5113033;27;46215;-76
2022/12/28 00:11:38;;;;;;;;;3.00;3.00;;;;;-146.50;100.00;59256.41;5077541;27;45410;-75
2022/12/28 00:14:03;;;;;;;;;2.00;2.00;;;;;-146.50;100.00;59256.41;5087317;27;45624;-76
2022/12/28 00:16:35;;;;;;;;;5.00;1.50;;;;;-146.50;100.00;59256.41;5084575;27;45505;-76
2022/12/28 00:19:04;;;;;;;;;2.25;2.25;;;;;-146.50;100.00;59256.41;5079678;27;45611;-76
2022/12/28 00:21:30;;;;;;;;;4.50;2.00;;;;;-146.50;100.00;59256.41;5079389;27;45871;-77
2022/12/28 00:23:57;;;;;;;;;3.00;3.00;;;;;-146.50;100.00;59256.41;5074332;27;45902;-75
2022/12/28 00:26:25;;;;;;;;;4.75;3.25;;;;;-146.50;100.00;59256.41;5070072;27;45972;-75
2022/12/28 00:28:50;;;;;;;;;3.75;3.00;;;;;-146.50;100.00;59256.41;5071956;27;45766;-74
2022/12/28 00:31:15;;;;;;;;;3.00;1.75;;;;;-146.50;100.00;59256.41;5074510;27;45581;-75
2022/12/28 00:33:41;;;;;;;;;3.00;3.00;;;;;-146.50;100.00;59256.41;5090388;27;46459;-76
2022/12/28 00:36:08;;;;;;;;;2.00;2.00;;;;;-146.50;100.00;59256.41;5081293;27;45720;-75
2022/12/28 00:38:37;;;;;;;;;1.75;1.75;;;;;-146.50;100.00;59256.41;5080706;27;45640;-76
2022/12/28 00:41:03;;;;;;;;;3.00;3.00;;;;;-146.50;100.00;59256.41;5089198;27;45473;-75
2022/12/28 00:43:29;;;;;;;;;3.50;2.00;;;;;-146.50;100.00;59256.41;5077441;27;45829;-76
2022/12/28 00:45:54;;;;;;;;;2.00;2.00;;;;;-146.50;100.00;59256.41;5086258;27;45485;-74
2022/12/28 00:48:20;;;;;;;;;4.75;2.00;;;;;-146.50;100.00;59256.41;5084903;27;45729;-75
2022/12/28 00:50:45;;;;;;;;;1.25;1.25;;;;;-146.50;100.00;59256.41;5117060;27;45715;-76
2022/12/28 00:53:10;;;;;;;;;2.25;2.25;;;;;-146.50;100.00;59256.41;5089448;27;45777;-76
2022/12/28 00:55:37;;;;;;;;;4.00;3.00;;;;;-146.50;100.00;59256.41;5072741;27;45486;-75
2022/12/28 00:58:03;;;;;;;;;3.00;3.00;;;;;-146.50;100.00;59256.41;5068868;27;45731;-76
2022/12/28 01:00:29;;;;;;;;;2.25;2.25;;;;;-146.50;100.00;59256.41;5067129;28;45575;-76
2022/12/28 01:02:54;;;;;;;;;2.50;2.50;;;;;-146.50;100.00;59256.41;5072761;27;45495;-76
2022/12/28 01:05:21;;;;;;;;;3.00;3.00;;;;;-146.50;100.00;59256.41;5070374;27;45547;-76
2022/12/28 01:07:46;;;;;;;;;2.75;2.75;;;;;-146.50;100.00;59256.41;5072799;27;46531;-75
2022/12/28 01:10:12;;;;;;;;;6.25;5.00;;;;;-146.50;100.00;59256.41;5071195;27;45461;-76
2022/12/28 01:12:37;;;;;;;;;4.00;3.00;;;;;-146.50;100.00;59256.41;5063634;28;45614;-75
2022/12/28 01:15:04;;;;;;;;;2.00;2.00;;;;;-146.50;100.00;59256.41;5058554;27;45496;-75
2022/12/28 01:17:30;;;;;;;;;3.00;3.00;;;;;-146.50;100.00;59256.41;5061476;28;45468;-74
2022/12/28 01:19:55;;;;;;;;;2.75;2.75;;;;;-146.50;100.00;59256.41;5062638;27;45409;-74
2022/12/28 01:22:21;;;;;;;;;2.25;2.25;;;;;-146.50;100.00;59256.41;5071603;28;45634;-74
2022/12/28 01:24:46;;;;;;;;;2.00;2.00;;;;;-146.50;100.00;59256.41;5073080;28;45389;-75
2022/12/28 01:27:11;;;;;;;;;4.75;3.00;;;;;-146.50;100.00;59256.41;5072965;27;45552;-75
2022/12/28 01:29:37;;;;;;;;;2.50;2.25;;;;;-146.50;100.00;59256.41;5088723;27;45568;-75
2022/12/28 01:32:03;;;;;;;;;1.75;1.75;;;;;-146.50;100.00;59256.41;5072807;27;45355;-75
2022/12/28 01:34:28;;;;;;;;;2.00;2.00;;;;;-146.50;100.00;59256.41;5071590;28;45427;-74
2022/12/28 01:36:53;;;;;;;;;2.75;2.75;;;;;-146.50;100.00;59256.41;5072693;27;45726;-74
2022/12/28 01:39:19;;;;;;;;;2.00;2.00;;;;;-146.50;100.00;59256.41;5072624;27;45381;-74
2022/12/28 01:41:44;;;;;;;;;3.00;3.00;;;;;-146.50;100.00;59256.41;5073255;27;45442;-75
2022/12/28 01:44:09;;;;;;;;;2.25;1.25;;;;;-146.50;100.00;59256.41;5072584;27;45347;-75
2022/12/28 01:46:49;;;;;;;;;2.25;2.25;;;;;-146.50;100.00;59256.41;5071623;28;46314;-75
2022/12/28 01:49:53;;;;;;;;;0.25;0.25;;;;;-146.50;100.00;59256.41;5072650;28;45464;-75
2022/12/28 01:52:38;;;;;;;;;1.00;1.00;;;;;-146.50;100.00;59256.41;5049430;28;45518;-75
2022/12/28 01:55:15;;;;;;;;;2.50;2.50;;;;;-146.50;100.00;59256.41;5049870;28;45737;-75
2022/12/28 01:57:52;;;;;;;;;3.75;3.00;;;;;-146.50;100.00;59256.41;5033771;28;46404;-75
2022/12/28 02:00:18;;;;;;;;;2.50;2.50;;;;;-146.50;100.00;59256.41;5052384;28;45363;-75
2022/12/28 02:02:49;;;;;;;;;1.00;1.00;;;;;-146.50;100.00;59256.41;5048555;28;45706;-74
2022/12/28 02:05:16;;;;;;;;;2.00;2.00;;;;;-146.50;100.00;59256.41;5053345;28;45801;-77
2022/12/28 02:07:50;;;;;;;;;4.00;2.00;;;;;-146.50;100.00;59256.41;5049812;28;46150;-75
2022/12/28 02:10:18;;;;;;;;;2.75;2.00;;;;;-146.50;100.00;59256.41;5049075;28;45770;-75
2022/12/28 02:12:43;;;;;;;;;3.00;2.25;;;;;-146.50;100.00;59256.41;5049726;28;45601;-74
2022/12/28 02:15:09;;;;;;;;;3.25;1.00;;;;;-146.50;100.00;59256.41;5049283;28;45424;-74
2022/12/28 02:17:35;;;;;;;;;1.50;1.50;;;;;-146.50;100.00;59256.41;5048997;28;47827;-74
2022/12/28 02:20:01;;;;;;;;;1.75;1.75;;;;;-146.50;100.00;59256.41;5049591;28;45522;-74
2022/12/28 02:22:38;;;;;;;;;2.00;2.00;;;;;-146.50;100.00;59256.41;5050044;28;45427;-74
2022/12/28 02:25:18;;;;;;;;;3.25;2.50;;;;;-146.50;100.00;59256.41;5051920;28;45653;-74
2022/12/28 02:28:02;;;;;;;;;1.00;1.00;;;;;-146.50;100.00;59256.41;5050262;28;45619;-74
2022/12/28 02:30:34;;;;;;;;;4.00;3.00;;;;;-146.50;100.00;59256.41;5051928;28;45781;-74
2022/12/28 02:33:09;;;;;;;;;3.50;3.00;;;;;-146.50;100.00;59256.41;5086019;27;45737;-74
2022/12/28 02:35:54;;;;;;;;;2.00;2.00;;;;;-146.50;100.00;59256.41;5072360;27;45451;-75
2022/12/28 02:38:26;;;;;;;;;1.75;1.75;;;;;-146.50;100.00;59256.41;5072065;28;46306;-74
2022/12/28 02:41:04;;;;;;;;;2.75;1.25;;;;;-146.50;100.00;59256.41;5071878;28;45832;-74
2022/12/28 02:43:32;;;;;;;;;1.50;1.50;;;;;-146.50;100.00;59256.41;5071246;27;45573;-75
2022/12/28 02:52:13;;;;;;;;;2.00;2.00;;;;;-146.50;100.00;59256.41;5069014;28;45555;-74
2022/12/28 02:57:40;;;;;;;;;3.00;3.00;;;;;-146.50;100.00;59256.41;5070080;28;45587;-76
2022/12/28 03:00:14;;;;;;;;;3.00;2.00;;;;;-146.50;100.00;59256.41;5072359;28;45608;-74
2022/12/28 03:03:03;;;;;;;;;3.00;3.00;;;;;-146.50;100.00;59256.41;5070778;28;45584;-75
2022/12/28 03:08:38;;;;;;;;;2.00;2.00;;;;;-146.50;100.00;59256.41;5073343;28;45513;-76
2022/12/28 03:11:10;;;;;;;;;5.50;2.25;;;;;-146.50;100.00;59256.41;5073731;27;47133;-76
2022/12/28 03:14:01;;;;;;;;;3.50;2.00;;;;;-146.50;100.00;59256.41;5074001;27;45419;-75
2022/12/28 03:16:32;;;;;;;;;3.50;3.00;;;;;-146.50;100.00;59256.41;5073398;28;45623;-76
2022/12/28 03:33:05;;;;;;;;;4.50;3.00;;;;;-146.50;100.00;59256.41;5067134;27;45662;-76
2022/12/28 03:35:37;;;;;;;;;5.00;4.00;;;;;-146.50;100.00;59256.41;5057475;28;45397;-76
2022/12/28 03:38:03;;;;;;;;;2.75;1.75;;;;;-146.50;100.00;59256.41;5053304;28;45349;-75
2022/12/28 03:40:47;;;;;;;;;3.75;3.75;;;;;-146.50;100.00;59256.41;5052535;28;45323;-76
2022/12/28 03:43:42;;;;;;;;;3.00;3.00;;;;;-146.50;100.00;59256.41;5058354;28;46432;-76
2022/12/28 03:46:28;;;;;;;;;3.00;3.00;;;;;-146.50;100.00;59256.41;5073377;27;45429;-76
2022/12/28 03:48:56;;;;;;;;;2.00;2.00;;;;;-146.50;100.00;59256.41;5073629;27;45646;-76
2022/12/28 03:51:24;;;;;;;;;3.50;2.75;;;;;-146.50;100.00;59256.41;5073502;28;45520;-75
2022/12/28 03:53:49;;;;;;;;;3.75;3.00;;;;;-146.50;100.00;59256.41;5072434;28;45679;-76
2022/12/28 03:56:18;;;;;;;;;4.00;4.00;;;;;-146.50;100.00;59256.41;5069147;28;45560;-77
2022/12/28 03:58:44;;;;;;;;;4.00;4.00;;;;;-146.50;100.00;59256.41;5061275;28;45460;-76
2022/12/28 04:01:10;;;;;;;;;4.00;4.00;;;;;-146.50;100.00;59256.41;5064114;27;45432;-76
2022/12/28 04:03:36;;;;;;;;;3.75;2.50;;;;;-146.50;100.00;59256.41;5060795;27;45579;-75
2022/12/28 04:06:02;;;;;;;;;4.75;3.75;;;;;-146.50;100.00;59256.41;5057623;28;45377;-76
2022/12/28 04:08:28;;;;;;;;;2.75;2.75;;;;;-146.50;100.00;59256.41;5067418;28;45683;-76
2022/12/28 04:10:53;;;;;;;;;3.00;3.00;;;;;-146.50;100.00;59256.41;5072146;27;45444;-76
2022/12/28 04:13:19;;;;;;;;;2.00;2.00;;;;;-146.50;100.00;59256.41;5072472;27;45757;-76
2022/12/28 04:16:01;;;;;;;;;4.00;4.00;;;;;-146.50;100.00;59256.41;5067498;27;45727;-76
2022/12/28 04:18:27;;;;;;;;;5.00;3.50;;;;;-146.50;100.00;59256.41;5064652;28;45412;-76
2022/12/28 04:20:53;;;;;;;;;3.00;3.00;;;;;-146.50;100.00;59256.41;5071729;27;45398;-76
2022/12/28 04:23:19;;;;;;;;;5.25;3.25;;;;;-146.50;100.00;59256.41;5072744;27;46067;-74
2022/12/28 04:26:05;;;;;;;;;1.00;1.00;;;;;-146.50;100.00;59256.41;5071459;27;46078;-74
2022/12/28 04:28:32;;;;;;;;;2.50;2.50;;;;;-146.50;100.00;59256.41;5065565;28;45377;-74
2022/12/28 04:30:58;;;;;;;;;4.00;4.00;;;;;-146.50;100.00;59256.41;5072043;28;45475;-75
2022/12/28 04:33:25;;;;;;;;;3.00;2.00;;;;;-146.50;100.00;59256.41;5072358;27;47100;-73
2022/12/28 04:35:51;;;;;;;;;3.00;3.00;;;;;-146.50;100.00;59256.41;5072372;27;45476;-74
2022/12/28 04:38:17;;;;;;;;;3.00;3.00;;;;;-146.50;100.00;59256.41;5068770;27;45599;-74
2022/12/28 04:40:42;;;;;;;;;2.00;2.00;;;;;-146.50;100.00;59256.41;5061236;28;45453;-75
2022/12/28 04:43:08;;;;;;;;;2.00;2.00;;;;;-146.50;100.00;59256.41;5058021;28;45764;-75
2022/12/28 04:45:33;;;;;;;;;3.00;2.00;;;;;-146.50;100.00;59256.41;5072697;27;45432;-75
2022/12/28 04:47:59;;;;;;;;;4.00;3.00;;;;;-146.50;100.00;59256.41;5072066;27;45471;-75
2022/12/28 04:50:25;;;;;;;;;1.00;1.00;;;;;-146.50;100.00;59256.41;5061934;27;45595;-75
2022/12/28 04:52:51;;;;;;;;;3.00;3.00;;;;;-146.50;100.00;59256.41;5061971;28;46014;-75
2022/12/28 04:55:16;;;;;;;;;3.00;3.00;;;;;-146.50;100.00;59256.41;5066564;27;45659;-75
2022/12/28 04:57:46;;;;;;;;;4.75;3.00;;;;;-146.50;100.00;59256.41;5065640;28;45488;-75
2022/12/28 05:00:12;;;;;;;;;2.50;2.00;;;;;-146.50;100.00;59256.41;5071486;28;45413;-74
2022/12/28 05:02:38;;;;;;;;;3.25;3.25;;;;;-146.50;100.00;59256.41;5072059;28;48167;-74
2022/12/28 05:05:04;;;;;;;;;1.50;1.50;;;;;-146.50;100.00;59256.41;5071983;28;45506;-75
2022/12/28 05:07:29;;;;;;;;;3.00;3.00;;;;;-146.50;100.00;59256.41;5071655;28;45533;-75
2022/12/28 05:09:54;;;;;;;;;1.00;1.00;;;;;-146.50;100.00;59256.41;5071724;27;45527;-74
2022/12/28 05:12:20;;;;;;;;;3.50;2.50;;;;;-146.50;100.00;59256.41;5071258;27;45564;-75
2022/12/28 05:14:46;;;;;;;;;2.00;2.00;;;;;-146.50;100.00;59256.41;5071618;28;45437;-73
2022/12/28 05:17:11;;;;;;;;;2.00;2.00;;;;;-146.50;100.00;59256.41;5071589;27;45400;-74
2022/12/28 05:19:37;;;;;;;;;3.00;2.00;;;;;-146.50;100.00;59256.41;5070222;28;45505;-75
2022/12/28 05:22:03;;;;;;;;;3.00;3.00;;;;;-146.50;100.00;59256.41;5071401;28;46374;-75
2022/12/28 05:24:28;;;;;;;;;1.75;1.75;;;;;-146.50;100.00;59256.41;5070099;27;45804;-75
2022/12/28 05:26:54;;;;;;;;;2.75;2.00;;;;;-146.50;100.00;59256.41;5071062;28;45445;-74
2022/12/28 05:29:19;;;;;;;;;2.00;2.00;;;;;-146.50;100.00;59256.41;5071721;27;45683;-75
2022/12/28 05:31:44;;;;;;;;;2.00;2.00;;;;;-146.50;100.00;59256.41;5071189;28;45417;-74
2022/12/28 05:34:10;;;;;;;;;4.00;3.00;;;;;-146.50;100.00;59256.41;5071360;27;45380;-74
2022/12/28 05:36:36;;;;;;;;;2.75;1.50;;;;;-146.50;100.00;59256.41;5071647;27;46057;-75
2022/12/28 05:39:03;;;;;;;;;2.50;2.50;;;;;-146.50;100.00;59256.41;5070928;27;45383;-74
2022/12/28 05:41:30;;;;;;;;;1.00;1.00;;;;;-146.50;100.00;59256.41;5070962;28;46509;-74
2022/12/28 05:43:57;;;;;;;;;1.75;1.75;;;;;-146.50;100.00;59256.41;5069233;27;46763;-74
2022/12/28 05:46:30;;;;;;;;;2.50;2.00;;;;;-146.50;100.00;59256.41;5069412;28;45681;-74
2022/12/28 05:48:55;;;;;;;;;4.50;3.50;;;;;-146.50;100.00;59256.41;5071634;28;45647;-73
2022/12/28 05:51:24;;;;;;;;;2.00;2.00;;;;;-146.50;100.00;59256.41;5069633;27;45426;-73
2022/12/28 05:53:49;;;;;;;;;1.75;1.75;;;;;-146.50;100.00;59256.41;5071423;28;45540;-73
2022/12/28 05:56:18;;;;;;;;;2.00;1.00;;;;;-146.50;100.00;59256.41;5069814;28;45594;-74
2022/12/28 05:58:45;;;;;;;;;2.00;1.00;;;;;-146.50;100.00;59256.41;5071239;28;45468;-74
2022/12/28 06:01:13;;;;;;;;;2.25;1.25;;;;;-146.50;100.00;59256.41;5069070;28;47024;-73
2022/12/28 06:03:40;;;;;;;;;2.75;1.50;;;;;-146.50;100.00;59256.41;5070935;27;45476;-74
2022/12/28 06:06:08;;;;;;;;;2.00;2.00;;;;;-146.50;100.00;59256.41;5070661;28;45361;-74
2022/12/28 06:08:35;;;;;;;;;2.75;2.75;;;;;-146.50;100.00;59256.41;5102471;27;45691;-74
2022/12/28 06:11:03;;;;;;;;;2.00;2.00;;;;;-146.50;100.00;59256.41;5066901;27;46109;-75
2022/12/28 06:13:29;;;;;;;;;4.00;4.00;;;;;-146.50;100.00;59256.41;5070652;28;45429;-75
2022/12/28 06:15:55;;;;;;;;;1.00;1.00;;;;;-146.50;100.00;59256.41;5070651;27;45526;-74
2022/12/28 06:18:21;;;;;;;;;2.00;2.00;;;;;-146.50;100.00;59256.41;5069071;28;45635;-73
2022/12/28 06:20:46;;;;;;;;;2.00;1.00;;;;;-146.50;100.00;59256.41;5067553;27;46051;-73
2022/12/28 06:23:12;;;;;;;;;2.75;2.75;;;;;-146.50;100.00;59256.41;5063374;27;45852;-73
2022/12/28 06:25:37;;;;;;;;;3.00;3.00;;;;;-146.50;100.00;59256.41;5067645;27;45486;-74
2022/12/28 06:28:03;;;;;;;;;1.00;1.00;;;;;-146.50;100.00;59256.41;5070708;28;45632;-73
2022/12/28 06:30:28;;;;;;;;;5.00;3.50;;;;;-146.50;100.00;59256.41;5070344;28;45477;-73
2022/12/28 06:32:56;;;;;;;;;1.50;1.00;;;;;-146.50;100.00;59256.41;5074539;27;45456;-72
2022/12/28 06:35:22;;;;;;;;;4.00;2.00;;;;;-146.50;100.00;59256.41;5075788;28;45642;-73
2022/12/28 06:37:48;;;;;;;;;3.25;2.00;;;;;-146.50;100.00;59256.41;5076724;27;45585;-73
2022/12/28 06:40:14;;;;;;;;;3.00;3.00;;;;;-146.50;100.00;59256.41;5076926;28;45474;-72
2022/12/28 06:42:39;;;;;;;;;4.00;2.25;;;;;-146.50;100.00;59256.41;5073597;27;45561;-74
2022/12/28 06:45:05;;;;;;;;;2.67;1.00;;;;;-146.50;100.00;59256.41;5076944;28;45507;-73
2022/12/28 06:47:32;;;;;;;;;2.25;2.00;;;;;-146.50;100.00;59256.41;5077267;28;45366;-73
2022/12/28 06:49:58;;;;;;;;;2.50;2.50;;;;;-146.50;100.00;59256.41;5072599;28;45604;-73
2022/12/28 06:52:23;;;;;;;;;3.25;3.00;;;;;-146.50;100.00;59256.41;5076755;27;45816;-74
2022/12/28 06:54:49;;;;;;;;;1.75;1.75;;;;;-146.50;100.00;59256.41;5077386;28;45543;-74
2022/12/28 06:57:14;;;;;;;;;1.75;1.25;;;;;-146.50;100.00;59256.41;5076923;27;45475;-73
2022/12/28 06:59:39;;;;;;;;;5.00;3.00;;;;;-146.50;100.00;59256.41;5077100;27;45826;-73
2022/12/28 07:02:05;;;;;;;;;3.50;2.25;;;;;-146.50;100.00;59256.41;5075917;28;45737;-73
2022/12/28 07:04:30;;;;;;;;;2.50;2.50;;;;;-146.50;100.00;59256.41;5075238;27;45804;-72
2022/12/28 07:06:56;;;;;;;;;2.50;2.00;;;;;-146.50;100.00;59256.41;5075547;27;45429;-73
2022/12/28 07:09:21;;;;;;;;;4.00;2.00;;;;;-146.50;100.00;59256.41;5075840;28;45490;-75
2022/12/28 07:11:49;;;;;;;;;4.25;3.00;;;;;-146.50;100.00;59256.41;5075209;28;45460;-75
2022/12/28 07:14:14;;;;;;;;;2.50;1.50;;;;;-146.50;100.00;59256.41;5077321;27;45470;-73
2022/12/28 07:16:40;;;;;;;;;1.25;1.25;;;;;-146.50;100.00;59256.41;5075656;27;45457;-74
2022/12/28 07:19:06;;;;;;;;;4.50;2.75;;;;;-146.50;100.00;59256.41;5072721;27;45701;-74
2022/12/28 07:21:34;;;;;;;;;0.00;0.00;;;;;-146.50;100.00;59256.41;5075800;27;45429;-74
2022/12/28 07:24:01;;;;;;;;;3.75;2.25;;;;;-146.50;100.00;59256.41;5076711;27;45430;-74
2022/12/28 07:26:29;;;;;;;;;2.00;2.00;;;;;-146.50;100.00;59256.41;5076599;27;45714;-75
2022/12/28 07:28:56;;;;;;;;;3.00;3.00;;;;;-146.50;100.00;59256.41;5076442;27;45477;-74
2022/12/28 07:31:24;;;;;;;;;5.00;3.00;;;;;-146.50;100.00;59256.41;5076503;28;45553;-75
2022/12/28 07:33:51;;;;;;;;;2.00;2.00;;;;;-146.50;100.00;59256.41;5076647;27;45800;-74
2022/12/28 07:36:19;;;;;;;;;3.00;2.00;;;;;-146.50;100.00;59256.41;5070543;27;45524;-75
2022/12/28 07:38:45;;;;;;;;;2.75;2.75;;;;;-146.50;100.00;59256.41;5075778;28;45671;-75
2022/12/28 07:41:13;;;;;;;;;4.00;2.00;;;;;-146.50;100.00;59256.41;5074544;27;45754;-75
2022/12/28 07:43:39;;;;;;;;;2.25;2.00;;;;;-146.50;100.00;59256.41;5072218;28;45563;-75
2022/12/28 07:46:12;;;;;;;;;2.50;1.25;;;;;-146.50;100.00;59256.41;5088320;27;45725;-74
2022/12/28 07:48:38;;;;;;;;;2.00;2.00;;;;;-146.50;100.00;59256.41;5066597;27;45525;-74
2022/12/28 07:51:07;;;;;;;;;1.00;1.00;;;;;-146.50;100.00;59256.41;5070801;28;45560;-73
2022/12/28 07:53:32;;;;;;;;;4.00;3.00;;;;;-146.50;100.00;59256.41;5071403;27;45405;-73
2022/12/28 07:55:59;;;;;;;;;1.75;1.75;;;;;-146.50;100.00;59256.41;5072410;28;45495;-73
2022/12/28 07:58:24;;;;;;;;;1.00;1.00;;;;;-146.50;100.00;59256.41;5072560;28;45447;-73
2022/12/28 08:00:50;;;;;;;;;2.00;2.00;;;;;-146.50;100.00;59256.41;5072043;27;45525;-75
2022/12/28 08:03:16;;;;;;;;;3.50;1.00;;;;;-146.50;100.00;59256.41;5072729;27;45457;-75
2022/12/28 08:05:41;;;;;;;;;2.00;1.00;;;;;-146.50;100.00;59256.41;5073287;27;45595;-76
2022/12/28 08:08:07;;;;;;;;;2.75;1.00;;;;;-146.50;100.00;59256.41;5071884;28;45507;-76
2022/12/28 08:10:32;;;;;;;;;2.00;2.00;;;;;-146.50;100.00;59256.41;5072962;28;45539;-75
2022/12/28 08:12:59;;;;;;;;;3.00;2.00;;;;;-146.50;100.00;59256.41;5071515;27;45413;-74
2022/12/28 08:15:24;;;;;;;;;2.33;2.33;;;;;-146.50;100.00;59256.41;5072924;27;45524;-74
2022/12/28 08:17:50;;;;;;;;;2.00;2.00;;;;;-146.50;100.00;59256.41;5072775;27;45530;-74
2022/12/28 08:20:16;;;;;;;;;2.00;2.00;;;;;-146.50;100.00;59256.41;5071099;28;45522;-74
2022/12/28 08:22:41;;;;;;;;;3.25;2.75;;;;;-146.50;100.00;59256.41;5073581;27;45598;-74
2022/12/28 08:25:07;;;;;;;;;2.33;1.00;;;;;-146.50;100.00;59256.41;5072797;28;45625;-74
2022/12/28 08:27:32;;;;;;;;;2.00;2.00;;;;;-146.50;100.00;59256.41;5072833;27;46135;-74
2022/12/28 08:29:58;;;;;;;;;2.75;2.00;;;;;-146.50;100.00;59256.41;5071048;28;45648;-74
2022/12/28 08:32:23;;;;;;;;;1.50;1.50;;;;;-146.50;100.00;59256.41;5073222;28;45516;-74
2022/12/28 08:34:48;;;;;;;;;3.00;2.00;;;;;-146.50;100.00;59256.41;5073329;27;45835;-74
2022/12/28 08:37:14;;;;;;;;;5.25;3.75;;;;;-146.50;100.00;59256.41;5072612;28;45661;-74
2022/12/28 08:39:39;;;;;;;;;3.75;3.00;;;;;-146.50;100.00;59256.41;5071504;28;45453;-73
2022/12/28 08:42:04;;;;;;;;;3.00;2.00;;;;;-146.50;100.00;59256.41;5073390;28;45577;-71
2022/12/28 08:44:30;;;;;;;;;2.25;2.25;;;;;-146.50;100.00;59256.41;5072776;27;45572;-72
2022/12/28 08:46:56;;;;;;;;;3.00;2.00;;;;;-146.50;100.00;59256.41;5073189;28;46981;-72
2022/12/28 08:49:22;;;;;;;;;4.50;2.75;;;;;-146.50;100.00;59256.41;5072800;27;45554;-72
2022/12/28 08:51:47;;;;;;;;;1.25;1.25;;;;;-146.50;100.00;59256.41;5073046;27;45580;-72
2022/12/28 08:54:13;;;;;;;;;4.00;2.75;;;;;-146.50;100.00;59256.41;5073124;27;45519;-72
2022/12/28 08:56:41;;;;;;;;;3.00;3.00;;;;;-146.50;100.00;59256.41;5072228;28;46404;-72
2022/12/28 08:59:07;;;;;;;;;1.75;1.75;;;;;-146.50;100.00;59256.41;5073005;27;45563;-72
2022/12/28 09:01:36;;;;;;;;;4.33;2.00;;;;;-146.50;100.00;59256.41;5071782;28;45458;-72
2022/12/28 09:04:02;;;;;;;;;2.50;2.00;;;;;-146.50;100.00;59256.41;5071407;28;45477;-72
2022/12/28 09:06:36;;;;;;;;;4.75;3.50;;;;;-146.50;100.00;59256.41;5072088;27;45444;-72
2022/12/28 09:09:05;;;;;;;;;4.00;2.25;;;;;-146.50;100.00;59256.41;5070818;28;45808;-72
2022/12/28 09:11:31;;;;;;;;;2.00;2.00;;;;;-146.50;100.00;59256.41;5072500;28;45524;-71
2022/12/28 09:13:56;;;;;;;;;2.00;2.00;;;;;-146.50;100.00;59256.41;5072642;28;45591;-72
2022/12/28 09:16:26;;;;;;;;;2.75;2.75;;;;;-146.50;100.00;59256.41;5071163;28;45566;-72
2022/12/28 09:18:57;;;;;;;;;4.75;2.25;;;;;-146.50;100.00;59256.41;5072581;27;45514;-72
2022/12/28 09:21:25;;;;;;;;;5.50;4.50;;;;;-146.50;100.00;59256.41;5070908;28;45519;-72
2022/12/28 09:23:51;;;;;;;;;3.00;1.50;;;;;-146.50;100.00;59256.41;5073117;28;45543;-72
2022/12/28 09:26:22;;;;;;;;;4.25;2.00;;;;;-146.50;100.00;59256.41;5072571;27;47312;-73
2022/12/28 09:28:51;;;;;;;;;2.75;2.50;;;;;-146.50;100.00;59256.41;5072896;28;45432;-72
2022/12/28 09:31:18;;;;;;;;;2.00;2.00;;;;;-146.50;100.00;59256.41;5071644;28;45425;-73
2022/12/28 09:34:02;;;;;;;;;2.00;2.00;;;;;-146.50;100.00;59256.41;5072969;27;45465;-73
2022/12/28 09:36:31;;;;;;;;;3.25;1.75;;;;;-146.50;100.00;59256.41;5071394;28;46041;-73
2022/12/28 09:38:57;;;;;;;;;2.00;2.00;;;;;-146.50;100.00;59256.41;5073129;27;45354;-72
2022/12/28 09:41:26;;;;;;;;;3.00;3.00;;;;;-146.50;100.00;59256.41;5071563;28;45516;-73
2022/12/28 09:44:29;;;;;;;;;4.33;3.33;;;;;-146.50;100.00;59256.41;5073553;28;45421;-72
2022/12/28 09:47:02;;;;;;;;;3.50;3.00;;;;;-146.50;100.00;59256.41;5072060;28;45350;-72
2022/12/28 09:49:38;;;;;;;;;2.50;2.25;;;;;-146.50;100.00;59256.41;5073320;28;45436;-72
2022/12/28 09:52:23;;;;;;;;;5.00;3.50;;;;;-146.50;100.00;59256.41;5071352;28;45401;-74
2022/12/28 09:54:48;;;;;;;;;0.00;0.00;;;;;-146.50;100.00;59256.41;5073193;28;45557;-73
2022/12/28 09:57:17;;;;;;;;;8.00;4.50;;;;;-146.50;100.00;59256.41;5073328;27;46633;-74
2022/12/28 09:59:44;;;;;;;;;3.75;3.75;;;;;-146.50;100.00;59256.41;5072085;27;45512;-74
2022/12/28 10:02:37;;;;;;;;;1.00;1.00;;;;;-146.50;100.00;59256.41;5071933;27;45597;-74
2022/12/28 10:05:03;;;;;;;;;3.00;3.00;;;;;-146.50;100.00;59256.41;5071082;27;45405;-74
2022/12/28 10:07:28;;;;;;;;;2.00;2.00;;;;;-146.50;100.00;59256.41;5071325;28;47114;-73
2022/12/28 10:09:54;;;;;;;;;3.00;3.00;;;;;-146.50;100.00;59256.41;5070820;28;45453;-74
2022/12/28 10:12:23;;;;;;;;;2.50;2.50;;;;;-146.50;100.00;59256.41;5070689;28;45576;-74
2022/12/28 10:14:49;;;;;;;;;3.25;2.25;;;;;-146.50;100.00;59256.41;5071146;28;45449;-74
2022/12/28 10:17:19;;;;;;;;;5.25;4.00;;;;;-146.50;100.00;59256.41;5070470;28;45509;-74
2022/12/28 10:19:46;;;;;;;;;5.75;3.25;;;;;-146.50;100.00;59256.41;5087613;27;45598;-73
2022/12/28 10:22:16;;;;;;;;;1.75;1.00;;;;;-146.50;100.00;59256.41;5072191;27;45727;-73
2022/12/28 10:24:43;;;;;;;;;3.00;3.00;;;;;-146.50;100.00;59256.41;5069745;28;45496;-73
2022/12/28 10:27:24;;;;;;;;;6.75;5.00;;;;;-146.50;100.00;59256.41;5071765;27;47035;-74
2022/12/28 10:29:51;;;;;;;;;0.75;0.75;;;;;-146.50;100.00;59256.41;5070641;28;45597;-72
2022/12/28 10:32:18;;;;;;;;;3.00;3.00;;;;;-146.50;100.00;59256.41;5086942;27;45502;-73
2022/12/28 10:35:00;;;;;;;;;3.50;3.50;;;;;-146.50;100.00;59256.41;5071671;27;45413;-73
2022/12/28 10:37:33;;;;;;;;;3.00;3.00;;;;;-146.50;100.00;59256.41;5069798;28;46854;-72
2022/12/28 10:40:02;;;;;;;;;2.00;2.00;;;;;-146.50;100.00;59256.41;5069171;28;45389;-72
2022/12/28 10:42:33;;;;;;;;;5.00;2.50;;;;;-146.50;100.00;59256.41;5070301;27;45578;-71
2022/12/28 10:45:05;;;;;;;;;2.33;2.00;;;;;-146.50;100.00;59256.41;5068727;28;45713;-72
2022/12/28 10:47:43;;;;;;;;;2.67;2.67;;;;;-146.50;100.00;59256.41;5071760;27;45509;-72
2022/12/28 10:50:37;;;;;;;;;3.25;3.25;;;;;-146.50;100.00;59256.41;5070495;28;45497;-72
2022/12/28 10:53:02;;;;;;;;;1.50;1.50;;;;;-146.50;100.00;59256.41;5066406;27;45480;-72
2022/12/28 10:55:31;;;;;;;;;2.50;2.00;;;;;-146.50;100.00;59256.41;5072165;28;45479;-72
2022/12/28 10:58:15;;;;;;;;;1.00;1.00;;;;;-146.50;100.00;59256.41;5073764;27;45711;-72
2022/12/28 11:00:40;;;;;;;;;3.00;2.00;;;;;-146.50;100.00;59256.41;5071172;28;45349;-72
2022/12/28 11:03:17;;;;;;;;;3.00;3.00;;;;;-146.50;100.00;59256.41;5074090;27;45347;-72
2022/12/28 11:05:43;;;;;;;;;2.25;2.25;;;;;-146.50;100.00;59256.41;5072048;28;45379;-73
2022/12/28 11:08:15;;;;;;;;;3.75;3.75;;;;;-146.50;100.00;59256.41;5073027;27;45556;-72
2022/12/28 11:10:40;;;;;;;;;2.50;2.00;;;;;-146.50;100.00;59256.41;5071065;28;45345;-72
2022/12/28 11:13:18;;;;;;;;;10.25;9.25;;;;;-146.50;100.00;59256.41;5074261;27;45526;-72
2022/12/28 11:15:44;;;;;;;;;4.00;4.00;;;;;-146.50;100.00;59256.41;5071781;28;45458;-72
2022/12/28 11:18:15;;;;;;;;;18.25;14.75;;;;;-146.50;100.00;59256.41;5074317;28;46073;-72
2022/12/28 11:20:45;;;;;;;;;11.50;11.50;;;;;-146.50;100.00;59256.41;5074287;28;45352;-72
2022/12/28 11:23:20;;;;;;;;;14.25;8.50;;;;;-146.50;100.00;59256.41;5077167;27;45489;-72
2022/12/28 11:25:46;;;;;;;;;13.75;11.50;;;;;-146.50;100.00;59256.41;5075389;28;45437;-72
2022/12/28 11:28:16;;;;;;;;;26.25;19.25;;;;;-146.50;100.00;59256.41;5076925;27;45423;-73
2022/12/28 11:30:43;;;;;;;;;27.50;22.00;;;;;-146.50;100.00;59256.41;5073214;28;45308;-72
2022/12/28 11:33:28;;;;;;;;;5.00;5.00;;;;;-146.50;100.00;59256.41;5077186;27;45430;-72
2022/12/28 11:35:55;;;;;;;;;2.75;2.75;;;;;-146.50;100.00;59256.41;5074223;28;45632;-73
2022/12/28 11:38:57;;;;;;;;;4.75;4.75;;;;;-146.50;100.00;59256.41;5092841;27;47156;-72
2022/12/28 11:41:22;;;;;;;;;4.25;2.25;;;;;-146.50;100.00;59256.41;5034482;28;45531;-73
2022/12/28 11:43:48;;;;;;;;;2.75;2.75;;;;;-146.50;100.00;59256.41;5033461;28;45284;-72